sensor_id;sensor_type;location;lat;lon;timestamp;P1;durP1;ratioP1;P2;durP2;ratioP2
9461;SDS011;4769;42.660;23.262;2023-02-08T00:02:12;18.57;;;11.97;;
9461;SDS011;4769;42.660;23.262;2023-02-08T00:04:39;21.67;;;13.47;;
9461;SDS011;4769;42.660;23.262;2023-02-08T00:07:06;19.60;;;12.43;;
9461;SDS011;4769;42.660;23.262;2023-02-08T00:09:33;20.17;;;13.23;;
9461;SDS011;4769;42.660;23.262;2023-02-08T00:12:00;20.40;;;13.53;;
9461;SDS011;4769;42.660;23.262;2023-02-08T00:14:26;20.00;;;12.43;;
9461;SDS011;4769;42.660;23.262;2023-02-08T00:16:53;21.63;;;12.50;;
9461;SDS011;4769;42.660;23.262;2023-02-08T00:19:22;20.67;;;12.80;;
9461;SDS011;4769;42.660;23.262;2023-02-08T00:21:48;22.40;;;13.67;;
9461;SDS011;4769;42.660;23.262;2023-02-08T00:24:15;18.77;;;12.67;;
9461;SDS011;4769;42.660;23.262;2023-02-08T00:26:42;21.80;;;13.20;;
9461;SDS011;4769;42.660;23.262;2023-02-08T00:29:09;19.80;;;12.40;;
9461;SDS011;4769;42.660;23.262;2023-02-08T00:31:36;17.67;;;11.53;;
9461;SDS011;4769;42.660;23.262;2023-02-08T00:34:03;17.73;;;12.10;;
9461;SDS011;4769;42.660;23.262;2023-02-08T00:36:32;19.57;;;11.77;;
9461;SDS011;4769;42.660;23.262;2023-02-08T00:38:58;22.07;;;13.63;;
9461;SDS011;4769;42.660;23.262;2023-02-08T00:41:25;19.63;;;12.07;;
9461;SDS011;4769;42.660;23.262;2023-02-08T00:43:52;20.20;;;12.53;;
9461;SDS011;4769;42.660;23.262;2023-02-08T00:46:19;17.57;;;11.97;;
9461;SDS011;4769;42.660;23.262;2023-02-08T00:48:46;19.33;;;12.33;;
9461;SDS011;4769;42.660;23.262;2023-02-08T00:51:13;18.03;;;11.73;;
9461;SDS011;4769;42.660;23.262;2023-02-08T00:53:42;18.53;;;12.47;;
9461;SDS011;4769;42.660;23.262;2023-02-08T00:56:11;20.83;;;13.27;;
9461;SDS011;4769;42.660;23.262;2023-02-08T00:58:39;18.63;;;12.80;;
9461;SDS011;4769;42.660;23.262;2023-02-08T01:01:06;19.80;;;11.93;;
9461;SDS011;4769;42.660;23.262;2023-02-08T01:03:33;21.07;;;13.50;;
9461;SDS011;4769;42.660;23.262;2023-02-08T01:06:02;18.00;;;12.10;;
9461;SDS011;4769;42.660;23.262;2023-02-08T01:08:30;21.60;;;13.17;;
9461;SDS011;4769;42.660;23.262;2023-02-08T01:11:02;22.20;;;13.57;;
9461;SDS011;4769;42.660;23.262;2023-02-08T01:13:30;20.63;;;12.87;;
9461;SDS011;4769;42.660;23.262;2023-02-08T01:16:03;19.33;;;13.10;;
9461;SDS011;4769;42.660;23.262;2023-02-08T01:18:31;18.57;;;12.33;;
9461;SDS011;4769;42.660;23.262;2023-02-08T01:21:02;21.90;;;13.97;;
9461;SDS011;4769;42.660;23.262;2023-02-08T01:23:29;20.00;;;13.50;;
9461;SDS011;4769;42.660;23.262;2023-02-08T01:25:56;19.57;;;13.30;;
9461;SDS011;4769;42.660;23.262;2023-02-08T01:28:24;19.13;;;12.60;;
9461;SDS011;4769;42.660;23.262;2023-02-08T01:30:51;22.13;;;13.60;;
9461;SDS011;4769;42.660;23.262;2023-02-08T01:33:18;21.90;;;13.30;;
9461;SDS011;4769;42.660;23.262;2023-02-08T01:35:48;19.87;;;12.33;;
9461;SDS011;4769;42.660;23.262;2023-02-08T01:38:16;19.40;;;12.80;;
9461;SDS011;4769;42.660;23.262;2023-02-08T01:40:43;19.07;;;12.00;;
9461;SDS011;4769;42.660;23.262;2023-02-08T01:43:13;20.87;;;13.33;;
9461;SDS011;4769;42.660;23.262;2023-02-08T01:45:47;20.20;;;13.67;;
9461;SDS011;4769;42.660;23.262;2023-02-08T01:48:16;18.27;;;12.67;;
9461;SDS011;4769;42.660;23.262;2023-02-08T01:50:47;21.07;;;14.60;;
9461;SDS011;4769;42.660;23.262;2023-02-08T01:53:19;21.20;;;14.13;;
9461;SDS011;4769;42.660;23.262;2023-02-08T01:55:47;20.10;;;12.90;;
9461;SDS011;4769;42.660;23.262;2023-02-08T01:58:17;20.03;;;13.80;;
9461;SDS011;4769;42.660;23.262;2023-02-08T02:00:45;23.80;;;14.27;;
9461;SDS011;4769;42.660;23.262;2023-02-08T02:03:14;21.77;;;14.43;;
9461;SDS011;4769;42.660;23.262;2023-02-08T02:05:44;23.17;;;14.63;;
9461;SDS011;4769;42.660;23.262;2023-02-08T02:08:12;21.60;;;14.33;;
9461;SDS011;4769;42.660;23.262;2023-02-08T02:10:40;24.90;;;15.17;;
9461;SDS011;4769;42.660;23.262;2023-02-08T02:13:08;22.63;;;14.17;;
9461;SDS011;4769;42.660;23.262;2023-02-08T02:15:37;19.90;;;13.67;;
9461;SDS011;4769;42.660;23.262;2023-02-08T02:18:05;20.13;;;13.87;;
9461;SDS011;4769;42.660;23.262;2023-02-08T02:20:39;20.80;;;13.97;;
9461;SDS011;4769;42.660;23.262;2023-02-08T02:29:40;23.93;;;14.73;;
9461;SDS011;4769;42.660;23.262;2023-02-08T02:32:31;22.63;;;14.13;;
9461;SDS011;4769;42.660;23.262;2023-02-08T02:35:13;22.20;;;14.43;;
9461;SDS011;4769;42.660;23.262;2023-02-08T02:37:46;23.00;;;14.97;;
9461;SDS011;4769;42.660;23.262;2023-02-08T02:40:24;27.17;;;16.63;;
9461;SDS011;4769;42.660;23.262;2023-02-08T02:43:00;25.63;;;16.37;;
9461;SDS011;4769;42.660;23.262;2023-02-08T02:45:54;26.20;;;16.03;;
9461;SDS011;4769;42.660;23.262;2023-02-08T02:48:31;28.53;;;16.77;;
9461;SDS011;4769;42.660;23.262;2023-02-08T02:51:07;26.87;;;16.30;;
9461;SDS011;4769;42.660;23.262;2023-02-08T02:53:40;26.77;;;17.43;;
9461;SDS011;4769;42.660;23.262;2023-02-08T02:56:15;26.43;;;16.97;;
9461;SDS011;4769;42.660;23.262;2023-02-08T02:58:45;31.33;;;18.47;;
9461;SDS011;4769;42.660;23.262;2023-02-08T03:01:12;28.87;;;17.83;;
9461;SDS011;4769;42.660;23.262;2023-02-08T03:03:40;24.03;;;16.77;;
9461;SDS011;4769;42.660;23.262;2023-02-08T03:06:09;29.13;;;17.37;;
9461;SDS011;4769;42.660;23.262;2023-02-08T03:08:54;30.47;;;17.43;;
9461;SDS011;4769;42.660;23.262;2023-02-08T03:11:30;27.47;;;16.57;;
9461;SDS011;4769;42.660;23.262;2023-02-08T03:14:01;25.33;;;16.47;;
9461;SDS011;4769;42.660;23.262;2023-02-08T03:16:45;24.97;;;16.63;;
9461;SDS011;4769;42.660;23.262;2023-02-08T03:19:30;26.47;;;16.73;;
9461;SDS011;4769;42.660;23.262;2023-02-08T03:22:04;27.47;;;17.87;;
9461;SDS011;4769;42.660;23.262;2023-02-08T03:24:39;29.80;;;17.67;;
9461;SDS011;4769;42.660;23.262;2023-02-08T03:27:16;30.50;;;18.03;;
9461;SDS011;4769;42.660;23.262;2023-02-08T03:29:54;27.10;;;17.43;;
9461;SDS011;4769;42.660;23.262;2023-02-08T03:32:28;32.03;;;17.90;;
9461;SDS011;4769;42.660;23.262;2023-02-08T03:35:06;32.97;;;19.90;;
9461;SDS011;4769;42.660;23.262;2023-02-08T03:37:41;27.93;;;18.00;;
9461;SDS011;4769;42.660;23.262;2023-02-08T03:40:14;27.80;;;17.60;;
9461;SDS011;4769;42.660;23.262;2023-02-08T03:42:46;29.07;;;18.83;;
9461;SDS011;4769;42.660;23.262;2023-02-08T03:45:17;28.37;;;17.77;;
9461;SDS011;4769;42.660;23.262;2023-02-08T03:47:47;26.97;;;17.57;;
9461;SDS011;4769;42.660;23.262;2023-02-08T03:50:17;27.97;;;18.33;;
9461;SDS011;4769;42.660;23.262;2023-02-08T03:52:48;28.03;;;17.67;;
9461;SDS011;4769;42.660;23.262;2023-02-08T03:55:18;30.17;;;19.50;;
9461;SDS011;4769;42.660;23.262;2023-02-08T03:57:49;31.33;;;19.47;;
9461;SDS011;4769;42.660;23.262;2023-02-08T04:00:20;34.10;;;20.83;;
9461;SDS011;4769;42.660;23.262;2023-02-08T04:02:51;34.67;;;21.00;;
9461;SDS011;4769;42.660;23.262;2023-02-08T04:05:23;33.73;;;19.80;;
9461;SDS011;4769;42.660;23.262;2023-02-08T04:07:50;35.63;;;20.10;;
9461;SDS011;4769;42.660;23.262;2023-02-08T04:10:18;34.30;;;18.70;;
9461;SDS011;4769;42.660;23.262;2023-02-08T04:12:45;32.60;;;19.80;;
9461;SDS011;4769;42.660;23.262;2023-02-08T04:15:13;31.23;;;20.03;;
9461;SDS011;4769;42.660;23.262;2023-02-08T04:17:40;34.30;;;21.07;;
9461;SDS011;4769;42.660;23.262;2023-02-08T04:20:07;34.27;;;20.23;;
9461;SDS011;4769;42.660;23.262;2023-02-08T04:22:36;38.60;;;23.47;;
9461;SDS011;4769;42.660;23.262;2023-02-08T04:25:03;31.57;;;19.60;;
9461;SDS011;4769;42.660;23.262;2023-02-08T04:27:30;33.67;;;20.23;;
9461;SDS011;4769;42.660;23.262;2023-02-08T04:29:57;29.13;;;18.60;;
9461;SDS011;4769;42.660;23.262;2023-02-08T04:32:24;33.30;;;20.37;;
9461;SDS011;4769;42.660;23.262;2023-02-08T04:34:50;32.57;;;20.00;;
9461;SDS011;4769;42.660;23.262;2023-02-08T04:37:17;29.90;;;19.83;;
9461;SDS011;4769;42.660;23.262;2023-02-08T04:39:45;31.83;;;19.80;;
9461;SDS011;4769;42.660;23.262;2023-02-08T04:42:12;33.20;;;20.63;;
9461;SDS011;4769;42.660;23.262;2023-02-08T04:44:39;32.23;;;20.73;;
9461;SDS011;4769;42.660;23.262;2023-02-08T04:47:06;32.83;;;20.77;;
9461;SDS011;4769;42.660;23.262;2023-02-08T04:49:33;32.87;;;19.90;;
9461;SDS011;4769;42.660;23.262;2023-02-08T04:52:00;30.20;;;19.97;;
9461;SDS011;4769;42.660;23.262;2023-02-08T04:54:27;32.50;;;20.80;;
9461;SDS011;4769;42.660;23.262;2023-02-08T04:56:55;29.73;;;19.30;;
9461;SDS011;4769;42.660;23.262;2023-02-08T04:59:22;31.00;;;19.53;;
9461;SDS011;4769;42.660;23.262;2023-02-08T05:01:49;36.13;;;21.87;;
9461;SDS011;4769;42.660;23.262;2023-02-08T05:04:16;32.27;;;20.30;;
9461;SDS011;4769;42.660;23.262;2023-02-08T05:06:42;33.47;;;21.33;;
9461;SDS011;4769;42.660;23.262;2023-02-08T05:09:09;30.63;;;19.43;;
9461;SDS011;4769;42.660;23.262;2023-02-08T05:11:36;35.07;;;21.63;;
9461;SDS011;4769;42.660;23.262;2023-02-08T05:14:05;36.90;;;22.50;;
9461;SDS011;4769;42.660;23.262;2023-02-08T05:16:32;35.67;;;22.67;;
9461;SDS011;4769;42.660;23.262;2023-02-08T05:18:58;37.20;;;22.13;;
9461;SDS011;4769;42.660;23.262;2023-02-08T05:21:25;31.67;;;19.03;;
9461;SDS011;4769;42.660;23.262;2023-02-08T05:23:52;37.67;;;23.17;;
9461;SDS011;4769;42.660;23.262;2023-02-08T05:26:19;39.27;;;23.87;;
9461;SDS011;4769;42.660;23.262;2023-02-08T05:28:45;38.83;;;24.20;;
9461;SDS011;4769;42.660;23.262;2023-02-08T05:31:14;36.83;;;23.23;;
9461;SDS011;4769;42.660;23.262;2023-02-08T05:33:44;35.30;;;22.33;;
9461;SDS011;4769;42.660;23.262;2023-02-08T05:36:12;35.23;;;22.27;;
9461;SDS011;4769;42.660;23.262;2023-02-08T05:38:38;33.23;;;22.00;;
9461;SDS011;4769;42.660;23.262;2023-02-08T05:41:05;35.37;;;22.27;;
9461;SDS011;4769;42.660;23.262;2023-02-08T05:43:32;40.00;;;23.80;;
9461;SDS011;4769;42.660;23.262;2023-02-08T05:45:59;39.23;;;25.20;;
9461;SDS011;4769;42.660;23.262;2023-02-08T05:48:27;43.30;;;26.23;;
9461;SDS011;4769;42.660;23.262;2023-02-08T05:50:55;42.47;;;26.90;;
9461;SDS011;4769;42.660;23.262;2023-02-08T05:53:22;81.03;;;35.77;;
9461;SDS011;4769;42.660;23.262;2023-02-08T05:55:49;55.07;;;31.97;;
9461;SDS011;4769;42.660;23.262;2023-02-08T05:58:16;49.70;;;27.77;;
9461;SDS011;4769;42.660;23.262;2023-02-08T06:00:43;64.20;;;34.50;;
9461;SDS011;4769;42.660;23.262;2023-02-08T06:03:10;60.80;;;35.33;;
9461;SDS011;4769;42.660;23.262;2023-02-08T06:05:39;52.83;;;33.87;;
9461;SDS011;4769;42.660;23.262;2023-02-08T06:08:07;57.00;;;34.50;;
9461;SDS011;4769;42.660;23.262;2023-02-08T06:10:34;57.43;;;34.13;;
9461;SDS011;4769;42.660;23.262;2023-02-08T06:13:02;55.40;;;34.27;;
9461;SDS011;4769;42.660;23.262;2023-02-08T06:15:30;58.57;;;35.03;;
9461;SDS011;4769;42.660;23.262;2023-02-08T06:17:57;54.90;;;34.37;;
9461;SDS011;4769;42.660;23.262;2023-02-08T06:20:24;59.40;;;36.23;;
9461;SDS011;4769;42.660;23.262;2023-02-08T06:22:53;66.73;;;38.00;;
9461;SDS011;4769;42.660;23.262;2023-02-08T06:25:20;56.73;;;34.80;;
9461;SDS011;4769;42.660;23.262;2023-02-08T06:27:47;64.93;;;38.27;;
9461;SDS011;4769;42.660;23.262;2023-02-08T06:30:14;64.87;;;36.40;;
9461;SDS011;4769;42.660;23.262;2023-02-08T06:32:41;64.17;;;38.50;;
9461;SDS011;4769;42.660;23.262;2023-02-08T06:35:08;51.27;;;30.70;;
9461;SDS011;4769;42.660;23.262;2023-02-08T06:37:35;38.33;;;24.70;;
9461;SDS011;4769;42.660;23.262;2023-02-08T06:40:04;35.07;;;22.23;;
9461;SDS011;4769;42.660;23.262;2023-02-08T06:42:32;37.73;;;23.17;;
9461;SDS011;4769;42.660;23.262;2023-02-08T06:44:59;37.37;;;23.77;;
9461;SDS011;4769;42.660;23.262;2023-02-08T06:47:27;31.57;;;19.70;;
9461;SDS011;4769;42.660;23.262;2023-02-08T06:49:54;31.03;;;19.10;;
9461;SDS011;4769;42.660;23.262;2023-02-08T06:52:20;30.80;;;19.50;;
9461;SDS011;4769;42.660;23.262;2023-02-08T06:54:48;29.13;;;18.23;;
9461;SDS011;4769;42.660;23.262;2023-02-08T06:57:16;29.00;;;19.33;;
9461;SDS011;4769;42.660;23.262;2023-02-08T06:59:42;29.43;;;19.40;;
9461;SDS011;4769;42.660;23.262;2023-02-08T07:02:10;33.43;;;22.10;;
9461;SDS011;4769;42.660;23.262;2023-02-08T07:04:38;36.03;;;21.40;;
9461;SDS011;4769;42.660;23.262;2023-02-08T07:07:05;34.07;;;21.20;;
9461;SDS011;4769;42.660;23.262;2023-02-08T07:09:33;32.37;;;21.20;;
9461;SDS011;4769;42.660;23.262;2023-02-08T07:12:00;37.53;;;21.27;;
9461;SDS011;4769;42.660;23.262;2023-02-08T07:14:31;32.77;;;20.47;;
9461;SDS011;4769;42.660;23.262;2023-02-08T07:16:59;32.17;;;20.30;;
9461;SDS011;4769;42.660;23.262;2023-02-08T07:19:26;29.27;;;19.50;;
9461;SDS011;4769;42.660;23.262;2023-02-08T07:21:53;29.00;;;17.93;;
9461;SDS011;4769;42.660;23.262;2023-02-08T07:24:20;24.50;;;16.63;;
9461;SDS011;4769;42.660;23.262;2023-02-08T07:26:47;25.70;;;17.57;;
9461;SDS011;4769;42.660;23.262;2023-02-08T07:29:14;25.57;;;16.87;;
9461;SDS011;4769;42.660;23.262;2023-02-08T07:31:42;24.80;;;16.23;;
9461;SDS011;4769;42.660;23.262;2023-02-08T07:34:09;22.77;;;15.03;;
9461;SDS011;4769;42.660;23.262;2023-02-08T07:36:36;23.27;;;15.63;;
9461;SDS011;4769;42.660;23.262;2023-02-08T07:39:03;28.90;;;17.10;;
9461;SDS011;4769;42.660;23.262;2023-02-08T07:41:30;31.43;;;19.30;;
9461;SDS011;4769;42.660;23.262;2023-02-08T07:43:58;34.97;;;20.80;;
9461;SDS011;4769;42.660;23.262;2023-02-08T07:46:25;32.67;;;21.77;;
9461;SDS011;4769;42.660;23.262;2023-02-08T07:48:53;35.30;;;21.87;;
9461;SDS011;4769;42.660;23.262;2023-02-08T07:51:20;32.87;;;21.30;;
9461;SDS011;4769;42.660;23.262;2023-02-08T07:53:47;33.23;;;19.50;;
9461;SDS011;4769;42.660;23.262;2023-02-08T07:56:14;30.07;;;22.33;;
9461;SDS011;4769;42.660;23.262;2023-02-08T07:58:42;26.30;;;18.37;;
9461;SDS011;4769;42.660;23.262;2023-02-08T08:01:09;25.40;;;17.13;;
9461;SDS011;4769;42.660;23.262;2023-02-08T08:03:36;29.23;;;16.87;;
9461;SDS011;4769;42.660;23.262;2023-02-08T08:06:04;26.10;;;16.23;;
9461;SDS011;4769;42.660;23.262;2023-02-08T08:08:31;27.13;;;17.53;;
9461;SDS011;4769;42.660;23.262;2023-02-08T08:10:58;28.33;;;17.20;;
9461;SDS011;4769;42.660;23.262;2023-02-08T08:13:25;27.43;;;17.73;;
9461;SDS011;4769;42.660;23.262;2023-02-08T08:15:52;24.87;;;17.47;;
9461;SDS011;4769;42.660;23.262;2023-02-08T08:18:18;28.57;;;17.63;;
9461;SDS011;4769;42.660;23.262;2023-02-08T08:20:45;26.53;;;17.23;;
9461;SDS011;4769;42.660;23.262;2023-02-08T08:23:13;29.73;;;17.20;;
9461;SDS011;4769;42.660;23.262;2023-02-08T08:25:40;27.37;;;17.43;;
9461;SDS011;4769;42.660;23.262;2023-02-08T08:28:07;27.03;;;18.23;;
9461;SDS011;4769;42.660;23.262;2023-02-08T08:30:34;26.47;;;17.80;;
9461;SDS011;4769;42.660;23.262;2023-02-08T08:33:01;31.03;;;19.60;;
9461;SDS011;4769;42.660;23.262;2023-02-08T08:35:28;31.10;;;19.97;;
9461;SDS011;4769;42.660;23.262;2023-02-08T08:37:55;29.73;;;19.83;;
9461;SDS011;4769;42.660;23.262;2023-02-08T08:40:23;29.57;;;19.90;;
9461;SDS011;4769;42.660;23.262;2023-02-08T08:42:50;31.50;;;21.07;;
9461;SDS011;4769;42.660;23.262;2023-02-08T08:45:17;32.83;;;20.03;;
9461;SDS011;4769;42.660;23.262;2023-02-08T08:47:44;29.27;;;20.80;;
9461;SDS011;4769;42.660;23.262;2023-02-08T08:50:10;31.53;;;20.13;;
9461;SDS011;4769;42.660;23.262;2023-02-08T08:52:37;31.03;;;19.77;;
9461;SDS011;4769;42.660;23.262;2023-02-08T08:55:06;34.03;;;21.80;;
9461;SDS011;4769;42.660;23.262;2023-02-08T08:57:35;31.37;;;21.20;;
9461;SDS011;4769;42.660;23.262;2023-02-08T09:00:02;32.90;;;19.53;;
9461;SDS011;4769;42.660;23.262;2023-02-08T09:02:29;28.67;;;19.37;;
9461;SDS011;4769;42.660;23.262;2023-02-08T09:04:56;29.93;;;19.17;;
9461;SDS011;4769;42.660;23.262;2023-02-08T09:07:24;29.07;;;20.00;;
9461;SDS011;4769;42.660;23.262;2023-02-08T09:09:51;30.30;;;18.13;;
9461;SDS011;4769;42.660;23.262;2023-02-08T09:12:18;30.33;;;18.73;;
9461;SDS011;4769;42.660;23.262;2023-02-08T09:14:46;35.20;;;18.17;;
9461;SDS011;4769;42.660;23.262;2023-02-08T09:17:13;27.23;;;18.33;;
9461;SDS011;4769;42.660;23.262;2023-02-08T09:19:39;29.90;;;18.50;;
9461;SDS011;4769;42.660;23.262;2023-02-08T09:22:07;23.90;;;17.27;;
9461;SDS011;4769;42.660;23.262;2023-02-08T09:24:36;27.10;;;16.40;;
9461;SDS011;4769;42.660;23.262;2023-02-08T09:27:04;25.87;;;16.73;;
9461;SDS011;4769;42.660;23.262;2023-02-08T09:29:31;26.23;;;16.67;;
9461;SDS011;4769;42.660;23.262;2023-02-08T09:31:59;25.23;;;16.40;;
9461;SDS011;4769;42.660;23.262;2023-02-08T09:34:26;21.53;;;15.77;;
9461;SDS011;4769;42.660;23.262;2023-02-08T09:36:53;31.70;;;16.77;;
9461;SDS011;4769;42.660;23.262;2023-02-08T09:39:20;24.17;;;15.27;;
9461;SDS011;4769;42.660;23.262;2023-02-08T09:41:58;19.47;;;12.73;;
9461;SDS011;4769;42.660;23.262;2023-02-08T09:58:50;29.43;;;17.87;;
9461;SDS011;4769;42.660;23.262;2023-02-08T10:01:20;33.97;;;19.63;;
9461;SDS011;4769;42.660;23.262;2023-02-08T10:03:49;25.70;;;15.90;;
9461;SDS011;4769;42.660;23.262;2023-02-08T10:06:18;24.20;;;16.10;;
9461;SDS011;4769;42.660;23.262;2023-02-08T10:08:46;24.17;;;15.30;;
9461;SDS011;4769;42.660;23.262;2023-02-08T10:11:20;26.53;;;16.03;;
9461;SDS011;4769;42.660;23.262;2023-02-08T10:17:08;29.17;;;16.90;;
9461;SDS011;4769;42.660;23.262;2023-02-08T10:19:53;26.20;;;15.03;;
9461;SDS011;4769;42.660;23.262;2023-02-08T10:22:30;23.93;;;14.17;;
9461;SDS011;4769;42.660;23.262;2023-02-08T10:28:01;24.27;;;14.63;;
9461;SDS011;4769;42.660;23.262;2023-02-08T10:30:46;32.63;;;16.70;;
9461;SDS011;4769;42.660;23.262;2023-02-08T10:33:24;22.90;;;15.77;;
9461;SDS011;4769;42.660;23.262;2023-02-08T10:35:55;24.03;;;13.97;;
9461;SDS011;4769;42.660;23.262;2023-02-08T10:38:23;25.43;;;13.30;;
9461;SDS011;4769;42.660;23.262;2023-02-08T10:40:54;20.10;;;13.10;;
9461;SDS011;4769;42.660;23.262;2023-02-08T10:43:25;19.27;;;12.57;;
9461;SDS011;4769;42.660;23.262;2023-02-08T10:46:03;23.03;;;14.20;;
9461;SDS011;4769;42.660;23.262;2023-02-08T10:48:41;26.50;;;14.63;;
9461;SDS011;4769;42.660;23.262;2023-02-08T10:51:19;23.60;;;14.80;;
9461;SDS011;4769;42.660;23.262;2023-02-08T10:53:47;22.33;;;14.13;;
9461;SDS011;4769;42.660;23.262;2023-02-08T10:56:20;21.80;;;14.67;;
9461;SDS011;4769;42.660;23.262;2023-02-08T10:58:57;22.73;;;15.80;;
9461;SDS011;4769;42.660;23.262;2023-02-08T11:01:27;24.00;;;15.70;;
9461;SDS011;4769;42.660;23.262;2023-02-08T11:04:00;23.03;;;15.03;;
9461;SDS011;4769;42.660;23.262;2023-02-08T11:06:28;18.00;;;12.27;;
9461;SDS011;4769;42.660;23.262;2023-02-08T11:08:56;16.93;;;11.83;;
9461;SDS011;4769;42.660;23.262;2023-02-08T11:11:23;16.00;;;12.47;;
9461;SDS011;4769;42.660;23.262;2023-02-08T11:13:54;21.67;;;13.27;;
9461;SDS011;4769;42.660;23.262;2023-02-08T11:16:34;19.17;;;12.50;;
9461;SDS011;4769;42.660;23.262;2023-02-08T11:19:02;20.10;;;13.60;;
9461;SDS011;4769;42.660;23.262;2023-02-08T11:21:32;18.33;;;12.43;;
9461;SDS011;4769;42.660;23.262;2023-02-08T11:24:01;19.47;;;13.47;;
9461;SDS011;4769;42.660;23.262;2023-02-08T11:26:34;21.10;;;13.50;;
9461;SDS011;4769;42.660;23.262;2023-02-08T11:29:03;19.33;;;12.03;;
9461;SDS011;4769;42.660;23.262;2023-02-08T11:31:40;17.40;;;12.27;;
9461;SDS011;4769;42.660;23.262;2023-02-08T11:34:25;18.97;;;11.90;;
9461;SDS011;4769;42.660;23.262;2023-02-08T11:36:53;19.23;;;13.20;;
9461;SDS011;4769;42.660;23.262;2023-02-08T11:39:23;18.47;;;12.47;;
9461;SDS011;4769;42.660;23.262;2023-02-08T11:41:54;18.80;;;13.47;;
9461;SDS011;4769;42.660;23.262;2023-02-08T11:44:25;21.73;;;13.20;;
9461;SDS011;4769;42.660;23.262;2023-02-08T11:46:57;17.00;;;12.37;;
9461;SDS011;4769;42.660;23.262;2023-02-08T11:49:28;18.17;;;13.13;;
9461;SDS011;4769;42.660;23.262;2023-02-08T11:52:01;20.23;;;13.83;;
9461;SDS011;4769;42.660;23.262;2023-02-08T11:54:30;20.87;;;14.27;;
9461;SDS011;4769;42.660;23.262;2023-02-08T11:57:00;19.23;;;13.93;;
9461;SDS011;4769;42.660;23.262;2023-02-08T11:59:28;20.43;;;13.27;;
9461;SDS011;4769;42.660;23.262;2023-02-08T12:01:58;32.13;;;13.63;;
9461;SDS011;4769;42.660;23.262;2023-02-08T12:04:44;18.97;;;12.97;;
9461;SDS011;4769;42.660;23.262;2023-02-08T12:07:17;17.20;;;12.83;;
9461;SDS011;4769;42.660;23.262;2023-02-08T12:12:50;19.70;;;12.47;;
9461;SDS011;4769;42.660;23.262;2023-02-08T12:15:30;19.33;;;12.10;;
9461;SDS011;4769;42.660;23.262;2023-02-08T12:18:19;18.20;;;11.77;;
9461;SDS011;4769;42.660;23.262;2023-02-08T12:20:58;21.00;;;13.13;;
9461;SDS011;4769;42.660;23.262;2023-02-08T12:26:19;19.03;;;12.47;;
9461;SDS011;4769;42.660;23.262;2023-02-08T12:32:01;22.77;;;14.93;;
9461;SDS011;4769;42.660;23.262;2023-02-08T12:34:49;21.17;;;13.93;;
9461;SDS011;4769;42.660;23.262;2023-02-08T12:37:30;28.50;;;16.93;;
9461;SDS011;4769;42.660;23.262;2023-02-08T12:40:30;24.00;;;14.90;;
9461;SDS011;4769;42.660;23.262;2023-02-08T12:49:21;15.20;;;10.97;;
9461;SDS011;4769;42.660;23.262;2023-02-08T12:52:11;16.73;;;11.50;;
9461;SDS011;4769;42.660;23.262;2023-02-08T12:54:47;17.97;;;12.10;;
9461;SDS011;4769;42.660;23.262;2023-02-08T12:57:17;16.03;;;9.40;;
9461;SDS011;4769;42.660;23.262;2023-02-08T12:59:48;15.20;;;8.47;;
9461;SDS011;4769;42.660;23.262;2023-02-08T13:02:20;14.47;;;10.63;;
9461;SDS011;4769;42.660;23.262;2023-02-08T13:04:51;16.40;;;10.63;;
9461;SDS011;4769;42.660;23.262;2023-02-08T13:07:26;14.00;;;9.87;;
9461;SDS011;4769;42.660;23.262;2023-02-08T13:09:59;13.27;;;8.97;;
9461;SDS011;4769;42.660;23.262;2023-02-08T13:12:31;11.27;;;7.87;;
9461;SDS011;4769;42.660;23.262;2023-02-08T13:15:01;11.80;;;8.03;;
9461;SDS011;4769;42.660;23.262;2023-02-08T13:17:34;15.60;;;9.63;;
9461;SDS011;4769;42.660;23.262;2023-02-08T13:20:15;16.37;;;9.23;;
9461;SDS011;4769;42.660;23.262;2023-02-08T13:22:56;14.17;;;8.67;;
9461;SDS011;4769;42.660;23.262;2023-02-08T13:25:31;13.77;;;8.03;;
9461;SDS011;4769;42.660;23.262;2023-02-08T13:28:01;13.30;;;9.40;;
9461;SDS011;4769;42.660;23.262;2023-02-08T13:30:29;18.23;;;9.10;;
9461;SDS011;4769;42.660;23.262;2023-02-08T13:32:58;11.50;;;8.03;;
9461;SDS011;4769;42.660;23.262;2023-02-08T13:35:33;14.00;;;8.20;;
9461;SDS011;4769;42.660;23.262;2023-02-08T13:38:03;9.40;;;6.90;;
9461;SDS011;4769;42.660;23.262;2023-02-08T13:40:33;10.53;;;7.37;;
9461;SDS011;4769;42.660;23.262;2023-02-08T13:43:02;11.30;;;7.87;;
9461;SDS011;4769;42.660;23.262;2023-02-08T13:45:33;9.47;;;7.60;;
9461;SDS011;4769;42.660;23.262;2023-02-08T13:48:03;11.97;;;8.67;;
9461;SDS011;4769;42.660;23.262;2023-02-08T13:50:37;15.13;;;8.67;;
9461;SDS011;4769;42.660;23.262;2023-02-08T13:53:08;13.07;;;9.00;;
9461;SDS011;4769;42.660;23.262;2023-02-08T13:58:28;12.27;;;8.40;;
9461;SDS011;4769;42.660;23.262;2023-02-08T14:04:14;11.10;;;8.98;;
9461;SDS011;4769;42.660;23.262;2023-02-08T14:06:54;10.53;;;8.60;;
9461;SDS011;4769;42.660;23.262;2023-02-08T14:09:26;14.60;;;10.23;;
9461;SDS011;4769;42.660;23.262;2023-02-08T14:11:59;10.83;;;7.67;;
9461;SDS011;4769;42.660;23.262;2023-02-08T14:14:29;11.77;;;8.53;;
9461;SDS011;4769;42.660;23.262;2023-02-08T14:17:08;10.93;;;7.43;;
9461;SDS011;4769;42.660;23.262;2023-02-08T14:19:43;12.93;;;8.17;;
9461;SDS011;4769;42.660;23.262;2023-02-08T14:22:21;13.23;;;8.97;;
9461;SDS011;4769;42.660;23.262;2023-02-08T14:25:02;11.90;;;8.20;;
9461;SDS011;4769;42.660;23.262;2023-02-08T14:27:37;11.97;;;8.43;;
9461;SDS011;4769;42.660;23.262;2023-02-08T14:30:07;14.53;;;9.03;;
9461;SDS011;4769;42.660;23.262;2023-02-08T14:32:49;12.73;;;9.33;;
9461;SDS011;4769;42.660;23.262;2023-02-08T14:35:20;13.37;;;9.20;;
9461;SDS011;4769;42.660;23.262;2023-02-08T14:37:51;16.27;;;9.27;;
9461;SDS011;4769;42.660;23.262;2023-02-08T14:40:57;16.77;;;10.83;;
9461;SDS011;4769;42.660;23.262;2023-02-08T14:43:34;14.93;;;10.00;;
9461;SDS011;4769;42.660;23.262;2023-02-08T14:49:08;13.37;;;9.83;;
9461;SDS011;4769;42.660;23.262;2023-02-08T14:51:37;12.87;;;9.63;;
9461;SDS011;4769;42.660;23.262;2023-02-08T14:54:13;14.60;;;9.57;;
9461;SDS011;4769;42.660;23.262;2023-02-08T14:56:49;18.10;;;10.47;;
9461;SDS011;4769;42.660;23.262;2023-02-08T14:59:21;15.97;;;10.63;;
9461;SDS011;4769;42.660;23.262;2023-02-08T15:01:53;16.33;;;10.47;;
9461;SDS011;4769;42.660;23.262;2023-02-08T15:04:26;12.30;;;9.50;;
9461;SDS011;4769;42.660;23.262;2023-02-08T15:07:04;15.40;;;10.23;;
9461;SDS011;4769;42.660;23.262;2023-02-08T15:09:41;17.50;;;11.00;;
9461;SDS011;4769;42.660;23.262;2023-02-08T15:12:13;14.53;;;9.77;;
9461;SDS011;4769;42.660;23.262;2023-02-08T15:14:47;15.47;;;10.40;;
9461;SDS011;4769;42.660;23.262;2023-02-08T15:17:18;14.60;;;10.73;;
9461;SDS011;4769;42.660;23.262;2023-02-08T15:19:48;15.83;;;10.60;;
9461;SDS011;4769;42.660;23.262;2023-02-08T15:22:17;14.23;;;10.07;;
9461;SDS011;4769;42.660;23.262;2023-02-08T15:24:55;19.80;;;10.50;;
9461;SDS011;4769;42.660;23.262;2023-02-08T15:27:27;14.97;;;10.77;;
9461;SDS011;4769;42.660;23.262;2023-02-08T15:29:56;18.23;;;10.93;;
9461;SDS011;4769;42.660;23.262;2023-02-08T15:32:25;16.57;;;9.90;;
9461;SDS011;4769;42.660;23.262;2023-02-08T15:34:54;19.70;;;11.23;;
9461;SDS011;4769;42.660;23.262;2023-02-08T15:37:22;17.97;;;11.67;;
9461;SDS011;4769;42.660;23.262;2023-02-08T15:39:50;20.80;;;12.37;;
9461;SDS011;4769;42.660;23.262;2023-02-08T15:42:20;19.33;;;12.93;;
9461;SDS011;4769;42.660;23.262;2023-02-08T15:44:51;17.23;;;12.17;;
9461;SDS011;4769;42.660;23.262;2023-02-08T15:47:19;23.63;;;12.20;;